Tindbinbilla Nature Res, New South Wales

8:19 PM AEST on August 26, 2016 (GMT +1000)
Kambah | | Change Station

Elev 2093 ft 35.37 °S, 149.05 °E | Updated 4 minutes ago

Clear
Clear
42.4 °F
Feels Like 42 °F
N
3.0
Wind Variable Wind from NW
Gusts 5.0 mph

Today
High -- | Low -- °F
--% Chance of Precip.
Yesterday
High -- | Low -- °F
Precip. -- in
Pressure 30.12 in
Visibility -9999.0 miles
Clouds
Windchill 42 °F
Dew Point 34 °F
Humidity 73%
Rainfall 0.00 in
Snow Depth Not available.
6:31 AM 5:40 PM
Waning Crescent, 36% visible
METAR YSCB 261000Z 36008KT CAVOK 06/02 Q1020 NOSIG RMK USE TAF FOR ARRIVALS AFTER 1030Z
Pressure 30.12 in
Visibility -9999.0 miles
Clouds
Windchill 42 °F
Dew Point 34 °F
Humidity 73%
Rainfall 0.00 in
Snow Depth Not available.
6:31 AM 5:40 PM
Waning Crescent, 36% visible
METAR YSCB 261000Z 36008KT CAVOK 06/02 Q1020 NOSIG RMK USE TAF FOR ARRIVALS AFTER 1030Z

10-Day Weather Forecast

Almanac

Astronomy

Aug. 26, 2016 Rise Set
Actual Time
Civil Twilight
Nautical Twilight
Astronomical Twilight
Moon
Length of Visible Light
Length of Day
Tomorrow will be .
, % of the Moon is Illuminated

Today's Extremes

Country Highs Country Lows

Community

WunderPhotos

Upload Photos

1,935,069 photos uploaded!

WunderBlog® & News

Nearby

Air Quality

  Air Quality AQ Index Pollutant
Not available.

Snow Depth

Station Depth Elevation

Earthquake Activity

City Distance Mag. Time & Date
Minimum magnitude displayed is 2.5.

Coastal Water Temperatures

Place Temperature

Stations

Nearby Weather Stations

Station Location Temp. Windchill Dew Point Humidity Wind Precip. Elev Updated Type